createdAt,value
2018-03-26T02:03:17.183Z,87.60
2018-03-26T02:05:45.784Z,87.50
2018-03-26T02:08:14.138Z,87.50
2018-03-26T02:10:41.663Z,87.00
2018-03-26T02:13:09.179Z,87.80
2018-03-26T02:15:36.971Z,87.90
2018-03-26T02:18:04.448Z,87.70
2018-03-26T02:20:32.187Z,87.20
2018-03-26T02:22:59.680Z,86.60
2018-03-26T02:25:27.549Z,86.50
2018-03-26T02:27:55.043Z,86.10
2018-03-26T02:30:22.541Z,86.10
2018-03-26T02:32:50.558Z,85.90
2018-03-26T02:35:18.891Z,85.60
2018-03-26T02:37:46.394Z,85.60
2018-03-26T02:40:14.653Z,84.90
2018-03-26T02:42:43.233Z,84.70
2018-03-26T02:45:10.719Z,84.60
2018-03-26T02:47:38.467Z,84.50
2018-03-26T02:50:05.965Z,84.50
2018-03-26T02:52:33.682Z,84.60
2018-03-26T02:55:01.956Z,84.60
2018-03-26T02:57:29.714Z,84.60
2018-03-26T02:59:57.993Z,85.20
2018-03-26T03:02:25.904Z,85.20
2018-03-26T03:04:53.470Z,85.50
2018-03-26T03:07:20.975Z,85.20
2018-03-26T03:09:49.604Z,85.20
2018-03-26T03:12:17.103Z,85.20
2018-03-26T03:14:44.590Z,85.40
2018-03-26T03:17:12.868Z,86.30
2018-03-26T03:19:41.141Z,86.50
2018-03-26T03:22:08.696Z,86.40
2018-03-26T03:24:37.465Z,86.70
2018-03-26T03:27:05.018Z,86.60
2018-03-26T03:29:32.523Z,86.90
2018-03-26T03:32:00.251Z,86.70
2018-03-26T03:34:28.078Z,86.80
2018-03-26T03:36:55.586Z,86.40
2018-03-26T03:39:23.850Z,86.70
2018-03-26T03:41:51.672Z,86.70
2018-03-26T03:44:19.354Z,86.50
2018-03-26T03:46:46.846Z,86.20
2018-03-26T03:49:15.425Z,86.40
2018-03-26T03:51:43.697Z,86.40
2018-03-26T03:54:11.179Z,86.40
2018-03-26T03:56:38.683Z,86.80
2018-03-26T03:59:06.172Z,86.90
2018-03-26T04:01:34.497Z,87.90
2018-03-26T04:04:02.408Z,87.80
2018-03-26T04:06:29.930Z,87.70
2018-03-26T04:08:57.454Z,87.70
2018-03-26T04:11:24.959Z,87.50
2018-03-26T04:13:52.442Z,87.30
2018-03-26T04:16:20.178Z,87.20
2018-03-26T04:18:47.743Z,87.50
2018-03-26T04:21:15.460Z,87.10
2018-03-26T04:23:43.202Z,87.30
2018-03-26T04:26:11.476Z,86.90
2018-03-26T04:28:39.967Z,87.20
2018-03-26T04:31:08.290Z,87.40
2018-03-26T04:33:36.045Z,87.50
2018-03-26T04:36:03.686Z,87.20
2018-03-26T04:38:31.195Z,87.40
2018-03-26T04:40:59.232Z,87.40
2018-03-26T04:43:26.737Z,87.10
2018-03-26T04:45:55.028Z,86.90
2018-03-26T04:48:23.283Z,87.10
2018-03-26T04:50:51.052Z,87.10
2018-03-26T04:53:18.553Z,87.50
2018-03-26T04:55:46.291Z,88.10
2018-03-26T04:58:14.636Z,89.00
2018-03-26T05:00:42.360Z,89.00
2018-03-26T05:03:09.879Z,89.00
2018-03-26T05:05:38.523Z,89.00
2018-03-26T05:08:06.021Z,89.00
2018-03-26T05:10:34.339Z,89.00
2018-03-26T05:13:01.928Z,89.00
2018-03-26T05:15:29.452Z,88.60
2018-03-26T05:17:56.996Z,89.00
2018-03-26T05:20:24.480Z,89.00
2018-03-26T05:22:52.204Z,88.30
2018-03-26T05:25:20.456Z,89.00
2018-03-26T05:27:48.399Z,89.10
2018-03-26T05:30:15.948Z,89.90
2018-03-26T05:32:43.462Z,89.10
2018-03-26T05:35:11.761Z,89.30
2018-03-26T05:37:39.675Z,89.30
2018-03-26T05:40:07.165Z,89.40
2018-03-26T05:42:34.703Z,89.10
2018-03-26T05:45:02.195Z,90.80
2018-03-26T05:47:29.697Z,86.40
2018-03-26T05:49:57.177Z,86.00
2018-03-26T05:52:25.671Z,85.10
2018-03-26T05:54:54.191Z,85.10
2018-03-26T05:57:21.706Z,85.10
2018-03-26T05:59:49.220Z,85.10
2018-03-26T06:02:16.982Z,85.20
2018-03-26T06:04:44.500Z,84.60
2018-03-26T06:07:12.752Z,84.10
2018-03-26T06:09:40.443Z,84.10
2018-03-26T06:12:07.946Z,84.20
2018-03-26T06:14:35.836Z,83.30
2018-03-26T06:17:15.330Z,82.50
2018-03-26T06:19:43.068Z,82.10
2018-03-26T06:22:10.858Z,81.50
2018-03-26T06:24:38.373Z,81.00
2018-03-26T06:27:06.116Z,80.50
2018-03-26T06:29:33.623Z,80.50
2018-03-26T06:32:01.380Z,80.00
2018-03-26T06:34:28.969Z,79.70
2018-03-26T06:37:11.155Z,79.60
2018-03-26T06:39:38.710Z,78.60
2018-03-26T06:42:06.235Z,78.70
2018-03-26T06:44:33.782Z,77.90
2018-03-26T06:47:01.430Z,76.70
2018-03-26T06:49:29.407Z,77.30
2018-03-26T06:51:57.042Z,76.30
2018-03-26T06:54:24.560Z,76.50
2018-03-26T06:56:57.569Z,77.30
2018-03-26T07:10:24.174Z,73.70
2018-03-26T07:12:52.123Z,73.20
2018-03-26T07:15:20.048Z,72.00
2018-03-26T07:17:47.556Z,71.20
2018-03-26T07:20:15.096Z,70.10
2018-03-26T07:22:42.935Z,65.40
2018-03-26T07:25:10.426Z,61.10
2018-03-26T07:27:38.006Z,56.20
2018-03-26T07:30:07.248Z,49.10
2018-03-26T07:32:35.199Z,49.10
2018-03-26T07:35:03.602Z,47.00
2018-03-26T07:37:31.099Z,44.70
2018-03-26T07:39:59.008Z,44.80
2018-03-26T07:42:26.539Z,46.40
2018-03-26T07:44:54.038Z,48.20
2018-03-26T07:47:21.761Z,51.10
2018-03-26T07:49:50.279Z,51.60
2018-03-26T07:52:17.762Z,52.40
2018-03-26T07:54:45.790Z,50.90
2018-03-26T07:57:14.219Z,49.00
2018-03-26T07:59:41.726Z,48.90
2018-03-26T08:02:10.019Z,53.30
2018-03-26T08:04:39.297Z,52.60
2018-03-26T08:07:07.716Z,54.30
2018-03-26T08:09:35.212Z,54.20
2018-03-26T08:12:02.923Z,54.80
2018-03-26T08:14:30.898Z,54.70
2018-03-26T08:16:58.816Z,55.40
2018-03-26T08:19:26.717Z,54.90
2018-03-26T08:21:54.275Z,51.90
2018-03-26T08:24:22.050Z,50.70
2018-03-26T08:26:49.604Z,49.90
2018-03-26T08:29:17.665Z,51.30
2018-03-26T08:31:45.170Z,51.40
2018-03-26T08:34:12.814Z,49.90
2018-03-26T08:36:40.890Z,51.40
2018-03-26T08:39:08.773Z,52.10
2018-03-26T08:41:36.300Z,53.30
2018-03-26T08:44:04.167Z,50.90
2018-03-26T08:46:32.011Z,49.80
2018-03-26T08:48:59.573Z,52.30
2018-03-26T08:51:27.637Z,52.10
2018-03-26T08:53:55.931Z,50.80
2018-03-26T08:56:23.778Z,50.80
2018-03-26T08:58:51.373Z,50.90
2018-03-26T09:01:19.414Z,50.30
2018-03-26T09:03:47.084Z,49.60
2018-03-26T09:06:15.376Z,50.50
2018-03-26T09:08:42.923Z,51.90
2018-03-26T09:11:10.642Z,51.80
2018-03-26T09:13:38.153Z,49.10
2018-03-26T09:16:05.750Z,48.70
2018-03-26T09:18:33.281Z,50.80
2018-03-26T09:21:00.803Z,51.30
2018-03-26T09:23:28.302Z,50.00
2018-03-26T09:25:56.337Z,51.70
2018-03-26T09:28:26.208Z,51.20
2018-03-26T09:30:53.839Z,52.80
2018-03-26T09:33:21.577Z,54.10
2018-03-26T09:35:49.564Z,53.60
2018-03-26T09:38:17.148Z,53.40
2018-03-26T09:40:44.729Z,50.30
2018-03-26T09:43:12.452Z,48.80
2018-03-26T09:45:40.249Z,48.50
2018-03-26T09:48:08.173Z,50.90
2018-03-26T09:50:35.693Z,51.60
2018-03-26T09:53:03.582Z,51.00
2018-03-26T09:55:31.869Z,49.30
2018-03-26T09:57:59.711Z,49.30
2018-03-26T10:00:33.042Z,48.70
2018-03-26T10:03:12.191Z,46.00
2018-03-26T10:05:44.775Z,43.40
2018-03-26T10:08:14.401Z,43.10
2018-03-26T10:10:41.894Z,42.10
2018-03-26T10:13:12.857Z,41.00
2018-03-26T10:15:40.694Z,42.20
2018-03-26T10:18:08.221Z,43.20
2018-03-26T10:20:36.079Z,43.30
2018-03-26T10:23:04.991Z,45.30
2018-03-26T10:25:33.036Z,45.30
2018-03-26T10:28:00.962Z,47.10
2018-03-26T10:30:29.107Z,47.30
2018-03-26T10:32:57.278Z,48.30
2018-03-26T10:35:25.418Z,47.40
2018-03-26T10:37:56.025Z,49.00
2018-03-26T10:40:23.703Z,49.20
2018-03-26T10:42:52.030Z,50.70
2018-03-26T10:45:19.676Z,50.60
2018-03-26T10:47:47.488Z,50.70
2018-03-26T10:50:15.754Z,49.80
2018-03-26T10:52:43.260Z,49.80
2018-03-26T10:55:11.207Z,51.50
2018-03-26T10:57:38.731Z,50.70
2018-03-26T11:00:06.265Z,51.50
2018-03-26T11:02:34.487Z,50.90
2018-03-26T11:05:02.970Z,51.40
2018-03-26T11:07:32.575Z,50.90
2018-03-26T11:10:01.162Z,50.90
2018-03-26T11:12:29.074Z,50.20
2018-03-26T11:14:56.595Z,50.10
2018-03-26T11:17:24.376Z,51.20
2018-03-26T11:19:51.856Z,51.60
2018-03-26T11:22:19.747Z,50.50
2018-03-26T11:24:47.246Z,52.00
2018-03-26T11:27:15.088Z,52.30
2018-03-26T11:29:43.426Z,52.20
2018-03-26T11:32:11.772Z,52.00
2018-03-26T11:34:39.425Z,52.70
2018-03-26T11:37:07.152Z,50.40
2018-03-26T11:39:34.644Z,51.60
2018-03-26T11:42:02.446Z,48.80
2018-03-26T11:44:31.266Z,49.20
2018-03-26T11:46:59.083Z,48.10
2018-03-26T11:49:26.624Z,47.40
2018-03-26T11:51:54.894Z,47.50
2018-03-26T11:54:23.246Z,48.90
2018-03-26T11:56:51.414Z,48.80
2018-03-26T11:59:27.992Z,49.20
2018-03-26T12:01:56.276Z,51.50
2018-03-26T12:04:24.718Z,51.20
2018-03-26T12:06:52.361Z,53.80
2018-03-26T12:09:19.964Z,53.10
2018-03-26T12:11:47.944Z,55.50
2018-03-26T12:14:15.719Z,55.60
2018-03-26T12:16:43.274Z,55.50
2018-03-26T12:19:11.274Z,56.10
2018-03-26T12:21:38.755Z,56.50
2018-03-26T12:24:19.669Z,57.60
2018-03-26T12:26:47.270Z,57.60
2018-03-26T12:29:26.834Z,57.20
2018-03-26T12:31:54.333Z,57.40
2018-03-26T12:34:34.486Z,57.50
2018-03-26T12:37:02.155Z,59.20
2018-03-26T12:39:29.670Z,60.00
2018-03-26T12:41:57.537Z,56.40
2018-03-26T12:44:37.111Z,57.20
2018-03-26T12:47:05.566Z,56.60
2018-03-26T12:49:33.425Z,57.00
2018-03-26T12:52:23.930Z,56.20
2018-03-26T12:54:51.420Z,56.80
2018-03-26T12:57:31.144Z,54.70
2018-03-26T12:59:58.665Z,55.20
2018-03-26T13:02:27.940Z,56.20
2018-03-26T13:04:55.460Z,56.10
2018-03-26T13:07:23.640Z,55.30
2018-03-26T13:09:51.145Z,56.80
2018-03-26T13:12:18.869Z,54.60
2018-03-26T13:14:46.860Z,54.50
2018-03-26T14:31:56.179Z,58.60
2018-03-26T14:34:23.680Z,58.60
2018-03-26T14:36:51.972Z,58.50
2018-03-26T14:39:19.524Z,59.00
2018-03-26T14:41:47.284Z,59.10
2018-03-26T14:44:16.485Z,57.60
2018-03-26T14:46:43.996Z,58.10
2018-03-26T14:49:13.533Z,58.20
2018-03-26T14:51:42.159Z,59.00
2018-03-26T14:54:10.743Z,59.80
2018-03-26T14:56:38.261Z,59.80
2018-03-26T14:59:05.757Z,60.80
2018-03-26T15:01:33.259Z,59.10
2018-03-26T15:04:01.555Z,58.90
2018-03-26T15:06:29.061Z,58.90
2018-03-26T15:08:57.105Z,59.00
2018-03-26T15:11:25.127Z,58.20
2018-03-26T15:13:53.405Z,59.10
2018-03-26T15:16:20.973Z,59.10
2018-03-26T15:18:48.850Z,59.70
2018-03-26T15:21:16.370Z,60.20
2018-03-26T15:23:44.507Z,60.10
2018-03-26T15:26:12.046Z,59.50
2018-03-26T15:28:39.929Z,59.40
2018-03-26T15:31:07.445Z,59.00
2018-03-26T15:33:34.962Z,58.70
2018-03-26T15:36:02.906Z,58.00
2018-03-26T15:38:31.194Z,58.10
2018-03-26T15:40:58.748Z,58.10
2018-03-26T15:43:26.336Z,58.10
2018-03-26T15:45:53.990Z,58.10
2018-03-26T15:48:21.871Z,58.10
2018-03-26T15:50:51.522Z,57.80
2018-03-26T15:53:20.328Z,57.00
2018-03-26T15:55:48.271Z,57.60
2018-03-26T15:58:16.142Z,57.90
2018-03-26T16:00:43.927Z,57.20
2018-03-26T16:03:17.399Z,57.00
2018-03-26T16:05:44.971Z,57.80
2018-03-26T16:08:13.872Z,57.70
2018-03-26T16:10:42.006Z,59.20
2018-03-26T16:13:10.254Z,58.20
2018-03-26T16:15:37.769Z,58.30
2018-03-26T16:18:05.325Z,59.30
2018-03-26T16:20:32.845Z,59.20
2018-03-26T16:23:00.373Z,59.40
2018-03-26T16:25:28.140Z,59.70
2018-03-26T16:27:55.694Z,60.20
2018-03-26T16:30:23.217Z,60.50
2018-03-26T16:32:51.504Z,60.10
2018-03-26T16:35:19.641Z,60.10
2018-03-26T16:37:48.643Z,60.50
2018-03-26T16:40:17.045Z,60.10
2018-03-26T16:42:44.788Z,60.50
2018-03-26T16:45:13.091Z,61.00
2018-03-26T16:47:40.616Z,61.00
2018-03-26T16:50:08.268Z,60.70
2018-03-26T16:52:37.344Z,61.20
2018-03-26T16:55:05.285Z,61.00
2018-03-26T16:57:32.962Z,61.50
2018-03-26T17:00:01.442Z,61.30
2018-03-26T17:02:29.278Z,62.50
2018-03-26T17:04:56.806Z,63.00
2018-03-26T17:07:24.911Z,63.90
2018-03-26T17:09:52.758Z,64.60
2018-03-26T17:12:20.647Z,64.70
2018-03-26T17:14:48.167Z,64.00
2018-03-26T17:17:17.060Z,64.50
2018-03-26T17:19:45.847Z,64.70
2018-03-26T17:22:17.973Z,64.70
2018-03-26T17:25:01.527Z,64.40
2018-03-26T17:27:32.345Z,65.00
2018-03-26T17:30:04.678Z,64.40
2018-03-26T17:32:36.231Z,65.70
2018-03-26T17:35:05.893Z,65.40
2018-03-26T17:37:33.810Z,66.40
2018-03-26T17:40:01.808Z,66.20
2018-03-26T17:42:29.307Z,65.40
2018-03-26T17:44:57.112Z,65.50
2018-03-26T17:47:24.613Z,66.60
2018-03-26T17:49:52.723Z,66.60
2018-03-26T17:52:21.638Z,66.80
2018-03-26T17:54:49.783Z,66.90
2018-03-26T17:57:19.555Z,66.70
2018-03-26T17:59:47.204Z,67.10
2018-03-26T18:02:15.344Z,66.50
2018-03-26T18:04:46.370Z,66.00
2018-03-26T18:07:14.436Z,66.10
2018-03-26T18:09:50.463Z,66.40
2018-03-26T18:12:18.956Z,66.40
2018-03-26T18:14:47.998Z,65.30
2018-03-26T18:17:16.156Z,65.30
2018-03-26T18:19:43.691Z,65.60
2018-03-26T18:22:11.811Z,65.00
2018-03-26T18:24:40.080Z,65.30
2018-03-26T18:27:08.144Z,65.80
2018-03-26T18:29:37.378Z,66.00
2018-03-26T18:32:05.934Z,66.10
2018-03-26T18:34:33.465Z,66.30
2018-03-26T18:37:06.171Z,66.20
2018-03-26T18:39:33.763Z,66.60
2018-03-26T18:42:01.296Z,66.90
2018-03-26T18:44:35.990Z,67.70
2018-03-26T18:47:04.629Z,69.00
2018-03-26T18:49:32.134Z,69.00
2018-03-26T18:52:00.190Z,68.90
2018-03-26T18:54:27.720Z,69.50
2018-03-26T18:56:56.908Z,70.50
2018-03-26T18:59:26.566Z,71.20
2018-03-26T19:01:55.668Z,71.20
2018-03-26T19:04:23.754Z,71.20
2018-03-26T19:06:53.664Z,71.20
2018-03-26T19:09:21.224Z,71.20
2018-03-26T19:11:49.394Z,71.50
2018-03-26T19:14:16.935Z,72.10
2018-03-26T19:16:45.573Z,73.00
2018-03-26T19:19:13.089Z,72.90
2018-03-26T19:21:41.689Z,72.90
2018-03-26T19:24:09.182Z,72.90
2018-03-26T19:26:36.679Z,73.40
2018-03-26T19:29:04.298Z,73.50
2018-03-26T19:31:32.001Z,73.40
2018-03-26T19:34:00.093Z,73.80
2018-03-26T19:36:29.049Z,74.30
2018-03-26T19:38:56.771Z,74.30
2018-03-26T19:41:24.370Z,74.30
2018-03-26T19:43:51.995Z,74.20
2018-03-26T19:46:19.626Z,74.50
2018-03-26T19:48:47.534Z,75.20
2018-03-26T19:51:15.023Z,75.30
2018-03-26T19:53:42.842Z,75.60
2018-03-26T19:56:10.352Z,76.20
2018-03-26T19:58:37.910Z,76.50
2018-03-26T20:01:05.423Z,76.40
2018-03-26T20:03:32.968Z,76.90
2018-03-26T20:06:01.364Z,77.50
2018-03-26T20:08:29.822Z,77.70
2018-03-26T20:10:57.322Z,78.30
2018-03-26T20:13:24.826Z,79.20
2018-03-26T20:15:52.354Z,79.20
2018-03-26T20:18:19.929Z,79.70
2018-03-26T20:20:47.457Z,79.90
2018-03-26T20:23:15.480Z,80.50
2018-03-26T20:25:42.998Z,81.20
2018-03-26T20:28:11.249Z,81.90
2018-03-26T20:30:39.193Z,81.90
2018-03-26T20:33:06.724Z,82.20
2018-03-26T20:35:34.630Z,82.70
2018-03-26T20:38:02.295Z,83.10
2018-03-26T20:40:29.788Z,83.20
2018-03-26T20:42:57.582Z,83.60
2018-03-26T20:45:25.255Z,84.20
2018-03-26T20:47:52.749Z,85.00
2018-03-26T20:50:20.253Z,85.00
2018-03-26T20:52:48.132Z,85.50
2018-03-26T20:55:15.626Z,85.60
2018-03-26T20:57:43.462Z,85.90
2018-03-26T21:00:11.109Z,85.70
2018-03-26T21:02:38.670Z,85.90
2018-03-26T21:05:07.544Z,86.40
2018-03-26T21:07:35.056Z,85.60
2018-03-26T21:10:03.307Z,85.30
2018-03-26T21:12:30.840Z,85.20
2018-03-26T21:14:59.429Z,85.20
2018-03-26T21:17:26.931Z,85.10
2018-03-26T21:19:54.623Z,85.20
2018-03-26T21:22:22.675Z,85.50
2018-03-26T21:24:50.198Z,85.90
2018-03-26T21:27:18.062Z,86.00
2018-03-26T21:29:45.583Z,86.40
2018-03-26T21:32:13.110Z,86.50
2018-03-26T21:34:40.626Z,86.50
2018-03-26T21:37:08.142Z,86.80
2018-03-26T21:39:35.655Z,86.70
2018-03-26T21:42:03.613Z,86.70
2018-03-26T21:44:31.178Z,87.30
2018-03-26T21:46:59.339Z,87.00
2018-03-26T21:49:27.035Z,87.30
2018-03-26T21:51:54.549Z,87.50
2018-03-26T21:54:22.568Z,87.50
2018-03-26T21:56:50.092Z,87.00
2018-03-26T21:59:17.750Z,87.60
2018-03-26T22:01:45.300Z,87.70
2018-03-26T22:04:13.187Z,87.10
2018-03-26T22:06:40.774Z,87.10
2018-03-26T22:09:08.528Z,86.70
2018-03-26T22:11:36.028Z,86.10
2018-03-26T22:14:03.556Z,85.90
2018-03-26T22:16:31.386Z,85.20
2018-03-26T22:18:58.888Z,84.60
2018-03-26T22:21:26.918Z,84.10
2018-03-26T22:23:54.405Z,83.60
2018-03-26T22:26:21.904Z,83.60
2018-03-26T22:28:49.690Z,83.60
2018-03-26T22:31:17.631Z,83.60
2018-03-26T22:33:45.178Z,84.30
2018-03-26T22:36:12.657Z,83.80
2018-03-26T22:38:40.183Z,83.50
2018-03-26T22:41:07.698Z,83.80
2018-03-26T22:43:35.246Z,84.30
2018-03-26T22:46:03.527Z,84.40
2018-03-26T22:48:31.088Z,84.40
2018-03-26T22:50:58.771Z,84.40
2018-03-26T22:53:26.284Z,84.60
2018-03-26T22:55:53.770Z,85.10
2018-03-26T22:58:21.635Z,85.40
